Mount Horeb, WI

5:29 AM CST on February 08, 2016 (GMT -0600)
Maple Dr. | | Change Station
CLOSE
Current Station
Personal Weather Station
Location: MT HOREB, WI
Elevation: 1181 ft
Nearby Weather Stations

Elev 1181 ft 43.00 °N, 89.74 °W | Updated 3 seconds ago

Overcast
Overcast
23.2 °F
Feels Like 19 °F
N
3.2
Wind Variable Wind from East
Gusts 11.5 mph

Today
High -- | Low -- °F
--% Chance of Precip.
Yesterday
High -- | Low -- °F
Precip. -- in
Pressure 29.62 in
Visibility 10.0 miles
Clouds Overcast 1000 ft
Windchill 19 °F
Dew Point 20 °F
Humidity 89%
Rainfall 0.00 in
Snow Depth Not available.
7:06 AM 5:20 PM
Waning Crescent, 0% visible
METAR KC29 081115Z AUTO 30009KT 10SM OVC010 M03/M05 A2962 RMK AO1 T10281046
Pressure 29.62 in
Visibility 10.0 miles
Clouds Overcast 1000 ft
Windchill 19 °F
Dew Point 20 °F
Humidity 89%
Rainfall 0.00 in
Snow Depth Not available.
7:06 AM 5:20 PM
Waning Crescent, 0% visible
METAR KC29 081115Z AUTO 30009KT 10SM OVC010 M03/M05 A2962 RMK AO1 T10281046

10-Day Weather Forecast

Almanac

Astronomy

Feb. 08, 2016 Rise Set
Actual Time
Civil Twilight
Nautical Twilight
Astronomical Twilight
Moon
Length of Visible Light
Length of Day
Tomorrow will be .
, % of the Moon is Illuminated

Today's Extremes

State Highs State Lows

Community

WunderPhotos

Upload Photos

1,891,420 photos uploaded!

WunderBlog® & News

Nearby

Air Quality

  Air Quality AQ Index Pollutant
Not available.

Snow Depth

Station Depth Elevation

Earthquake Activity

City Distance Mag. Time & Date
Minimum magnitude displayed is 2.5.

Coastal Water Temperatures

Place Temperature

Stations

Nearby Weather Stations

Station Location Temp. Windchill Dew Point Humidity Wind Precip. Elev Updated Type
                   

Watches & Warnings

There are currently no watches in effect.